Shenandoah National Park, VA

5:13 AM EST op 29 januari 2015 (GMT -0500)
Redwood Lakes | Change Station
CLOSE
Current Station
Persoonlijk weerstation
Location: Culpeper, VA
Geometrische hoogte: 407 ft
Nabije weerstations

Hoogte 407 ft 38.47 °N, 78.02 °W | Updated 3 seconds ago

Helder
Helder
16.5 °F
Voelt als 16 °F
N
0.0
Wind Variabel Wind van ZO
Gusts 0.0 mijl/u

Vandaag
Hoog -- | Laag -- °F
--% Kans op neerslag
Gisteren
Hoog -- | Laag -- °F
Precip. -- inches
7:19 AM 5:30 PM
Wassende maan, 73% visible
Druk 30.32 inches
Zicht 10.0 mijlen
Wolken Helder
Gevoelstemperatuur 16 °F
Dauwpunt 8 °F
Vochtigheid 69%
Neerslag 0.00 inches
Dikte sneeuw Niet beschikbaar.
UV 0.0 van de 12
Pollen .30 van de 12
Luchtkwaliteit Niet beschikbaar.
Flu Activity Niet beschikbaar.
METAR KCJR 290955Z AUTO 00000KT 10SM CLR M10/M11 A3032 RMK AO2

More Conditions Fewer Conditions

Druk 30.32 inches
Zicht 10.0 mijlen
Wolken Helder
Gevoelstemperatuur 16 °F
Dauwpunt 8 °F
Vochtigheid 69%
Neerslag 0.00 inches
Dikte sneeuw Niet beschikbaar.
UV 0.0 van de 12
Pollen .30 van de 12
Luchtkwaliteit Niet beschikbaar.
Flu Activity Niet beschikbaar.
METAR KCJR 290955Z AUTO 00000KT 10SM CLR M10/M11 A3032 RMK AO2

More Conditions Fewer Conditions

10-Day Weather Forecast

Almanac

Astronomie

Jan. 29, 2015 Opkomst Ondergang
Werkelijke tijd
Burgerlijke schemering
Nautische schemering
Astronomische schemering
Maan
Golflengte van het zichtbare licht
Daglengte
Tomorrow will be .
, % of the Moon is Illuminated

Extremen vandaag

State Highs State Lows

Community

WunderPhotos

Upload Photos

1,791,389 foto’s ge-upload!

WunderBlogs® & News

Nearby

Luchtkwaliteit

  Luchtkwaliteit LK-index Verontreinigende stof
Not available.

Dikte sneeuw

Station Depth Geometrische hoogte

Aardbevingen

Stad Distance Mag. Time & Date
Minimum magnitude displayed is 2.5.

Watertemperatuur langs de kust

Plaats Temperatuur

Nabije weerstations